Stations météo

réclame
Mon MeteoGroup
Elgoibar, Espagne (8036): Température de l'air & dewpoint: 18.10.2017 09:00:00 - 24.10.2017 09:00:00 (CEST)Elgoibar, Espagne (8036): Vitesse du vent & gusts: 18.10.2017 09:00:00 - 24.10.2017 09:00:00 (CEST)Elgoibar, Espagne (8036): Direction du vent: 18.10.2017 09:00:00 - 24.10.2017 09:00:00 (CEST)Elgoibar, Espagne (8036): Quantités de précipitations: 18.10.2017 09:00:00 - 24.10.2017 09:00:00 (CEST)
Date & Time tt [°C] td [°C] ff [km/h] ff [knt] fx [km/h] fx [knt] dd rr [mm]
24.10.2017 09:00:00 6,1 5,5 0 0 0 0 N 0,0
24.10.2017 08:00:00 5,8 5,1 0 0 5 3 N -
24.10.2017 07:00:00 6,2 5,5 0 0 0 0 N 0,0
24.10.2017 06:00:00 6,5 5,8 0 0 0 0 N 0,0
24.10.2017 05:00:00 7,1 6,2 0 0 0 0 N 0,0
24.10.2017 04:00:00 7,4 6,5 0 0 0 0 N 0,0
24.10.2017 03:00:00 7,8 6,9 0 0 4 2 N 0,0
24.10.2017 02:00:00 8,3 7,2 0 0 0 0 N -
24.10.2017 01:00:00 8,7 7,5 0 0 0 0 N 0,0
24.10.2017 00:00:00 9,2 7,8 0 0 0 0 N 0,0
23.10.2017 23:00:00 9,7 8,0 0 0 0 0 N 0,0
23.10.2017 22:00:00 10,5 8,6 0 0 0 0 N 0,0
23.10.2017 21:00:00 11,6 9,3 0 0 0 0 N 0,0
23.10.2017 20:00:00 12,8 9,8 0 0 1 1 N -
23.10.2017 19:00:00 14,4 10,0 0 0 7 4 N 0,0
23.10.2017 18:00:00 16,3 10,2 2 1 11 6 NNE 0,0
23.10.2017 17:00:00 16,8 10,0 6 3 17 9 N 0,0
23.10.2017 16:00:00 17,7 10,1 6 3 19 10 N 0,0
23.10.2017 15:00:00 19,1 9,6 1 1 16 8 NE 0,0
23.10.2017 14:00:00 18,3 9,9 0 0 6 3 N -
23.10.2017 13:00:00 16,3 9,7 3 2 9 5 SW 0,0
23.10.2017 12:00:00 14,8 10,6 1 0 7 4 ESE 0,0
23.10.2017 11:00:00 11,7 10,4 2 1 7 4 ESE 0,0
23.10.2017 10:00:00 9,6 9,0 0 0 7 4 E 0,0
23.10.2017 09:00:00 8,5 7,9 0 0 6 3 ESE 0,0
23.10.2017 08:00:00 9,0 8,4 2 1 12 6 SE -
23.10.2017 07:00:00 9,0 8,4 8 4 11 6 E 0,1
23.10.2017 06:00:00 9,3 8,7 2 1 10 6 E 0,0
23.10.2017 05:00:00 9,5 8,9 3 1 8 4 ESE 0,0
23.10.2017 04:00:00 10,0 9,4 0 0 0 0 N 0,0
23.10.2017 03:00:00 10,1 9,5 0 0 0 0 N 0,0
23.10.2017 02:00:00 10,5 9,7 0 0 0 0 N -
23.10.2017 01:00:00 10,3 9,5 0 0 0 0 N 0,0
23.10.2017 00:00:00 10,6 9,7 0 0 6 3 N 0,0
22.10.2017 23:00:00 11,5 10,6 3 2 7 4 E 0,0
22.10.2017 22:00:00 11,6 10,7 0 0 0 0 N 0,0
22.10.2017 21:00:00 11,8 10,7 0 0 0 0 N 0,0
22.10.2017 20:00:00 12,0 10,6 0 0 0 0 N -
22.10.2017 19:00:00 12,4 10,5 0 0 7 4 N 0,2
22.10.2017 18:00:00 13,1 9,9 0 0 21 12 N 0,0
22.10.2017 17:00:00 14,2 9,6 5 3 20 11 W 0,0
22.10.2017 16:00:00 13,8 10,0 3 1 18 10 NW 0,0
22.10.2017 15:00:00 14,6 10,8 1 1 8 4 W 0,0
22.10.2017 14:00:00 14,6 11,2 2 1 21 12 W -
22.10.2017 13:00:00 13,4 11,3 9 5 18 10 WSW 0,1
22.10.2017 12:00:00 12,1 10,3 4 2 19 11 W 0,2
22.10.2017 11:00:00 11,7 10,8 11 6 21 11 WSW 0,6
22.10.2017 10:00:00 11,3 10,4 0 0 11 6 N 1,0
22.10.2017 09:00:00 11,1 10,2 2 1 12 7 N 0,0
22.10.2017 08:00:00 11,2 10,1 2 1 9 5 N -
22.10.2017 07:00:00 11,2 10,1 1 1 9 5 NW 0,0
22.10.2017 06:00:00 11,4 10,1 1 1 18 10 S 0,2
22.10.2017 05:00:00 11,4 10,1 2 1 8 5 N 0,0
22.10.2017 04:00:00 11,4 10,0 0 0 6 3 N 0,0
22.10.2017 03:00:00 11,5 9,8 3 2 11 6 WSW 0,0
22.10.2017 02:00:00 12,0 9,2 4 2 16 9 W -
22.10.2017 01:00:00 12,9 9,2 8 4 30 16 W 0,0
22.10.2017 00:00:00 13,5 9,2 6 4 14 8 WSW 0,0
21.10.2017 23:00:00 13,6 9,3 6 3 14 8 WSW 0,0
21.10.2017 22:00:00 13,9 8,5 6 4 15 8 WSW 0,0
21.10.2017 21:00:00 14,6 8,6 4 2 19 10 W 0,0
21.10.2017 20:00:00 14,7 8,4 1 1 21 12 W -
21.10.2017 19:00:00 15,2 8,7 2 1 11 6 W 0,0
21.10.2017 18:00:00 15,9 8,6 2 1 19 10 WNW 0,0
21.10.2017 17:00:00 16,3 8,8 1 1 21 12 WNW 0,0
21.10.2017 16:00:00 16,7 8,7 8 4 24 13 WNW 0,0
21.10.2017 15:00:00 16,4 11,3 2 1 6 4 SE 0,0
21.10.2017 14:00:00 16,1 12,5 0 0 4 2 N -
21.10.2017 13:00:00 15,0 12,7 1 1 6 4 SSE 0,0
21.10.2017 12:00:00 14,0 12,4 0 0 10 5 N 0,7
21.10.2017 11:00:00 14,1 12,5 3 2 10 5 WSW 0,3
21.10.2017 10:00:00 14,0 12,4 0 0 16 9 SSE 0,3
21.10.2017 09:00:00 14,2 12,4 1 1 11 6 NE 0,2
21.10.2017 08:00:00 15,3 12,1 6 3 29 15 ESE -
21.10.2017 07:00:00 16,6 13,1 6 4 25 13 W 0,0
21.10.2017 06:00:00 16,6 13,7 8 4 27 15 WNW 0,0
21.10.2017 05:00:00 17,8 14,3 9 5 42 23 W 0,0
21.10.2017 04:00:00 20,6 12,8 1 1 34 18 SSW 0,0
21.10.2017 03:00:00 20,9 12,9 10 6 27 15 S 0,0
21.10.2017 02:00:00 21,2 12,4 3 2 44 24 S -
21.10.2017 01:00:00 21,6 11,9 14 8 43 23 SW 0,0
21.10.2017 00:00:00 21,4 11,1 13 7 40 21 SW 0,0
20.10.2017 23:00:00 21,2 10,7 11 6 27 15 SW 0,0
20.10.2017 22:00:00 19,8 10,0 3 2 28 15 W 0,0
20.10.2017 21:00:00 20,7 10,2 5 3 29 15 WSW 0,0
20.10.2017 20:00:00 21,4 10,9 11 6 29 16 SW -
20.10.2017 19:00:00 20,8 10,6 2 1 17 9 SSW 0,0
20.10.2017 18:00:00 22,0 12,0 3 1 25 13 S 0,0
20.10.2017 17:00:00 20,9 12,3 8 4 17 9 NNE 0,0
20.10.2017 16:00:00 23,9 11,9 3 2 21 12 WNW 0,0
20.10.2017 15:00:00 23,0 11,7 2 1 19 10 W 0,0
20.10.2017 14:00:00 22,2 12,2 7 4 21 11 W -
20.10.2017 13:00:00 20,0 12,0 5 3 22 12 WSW 0,0
20.10.2017 12:00:00 17,6 12,9 5 3 11 6 NNW 0,0
20.10.2017 11:00:00 15,4 12,3 2 1 8 4 N 0,0
20.10.2017 10:00:00 13,9 11,2 6 3 13 7 W 0,0
20.10.2017 09:00:00 13,4 10,8 9 5 16 8 W 0,0
20.10.2017 08:00:00 12,7 10,6 1 1 5 3 E -
20.10.2017 07:00:00 12,8 10,3 1 0 7 4 ENE 0,0
20.10.2017 06:00:00 13,1 10,5 1 1 8 4 NNE 0,0
20.10.2017 05:00:00 13,1 10,5 0 0 5 3 SW 0,0
20.10.2017 04:00:00 13,3 10,1 1 1 11 6 WSW 0,0
20.10.2017 03:00:00 13,5 10,3 2 1 11 6 SW 0,0
20.10.2017 02:00:00 13,3 10,1 1 1 9 5 ESE -
20.10.2017 01:00:00 13,7 9,6 6 3 18 10 WSW 0,0
20.10.2017 00:00:00 13,4 10,0 6 3 18 10 W 0,0
19.10.2017 23:00:00 13,0 9,6 9 5 20 11 W 0,0
19.10.2017 22:00:00 13,0 9,6 4 2 21 11 W 0,0
19.10.2017 21:00:00 13,6 10,2 9 5 16 9 W 0,0
19.10.2017 20:00:00 13,4 10,4 4 2 8 4 NNW -
19.10.2017 19:00:00 14,9 10,5 2 1 9 5 SSW 0,0
19.10.2017 18:00:00 16,9 10,5 3 2 14 8 NE 0,0
19.10.2017 17:00:00 18,1 11,0 6 3 10 5 N 0,0
19.10.2017 16:00:00 19,9 10,3 2 1 13 7 W 0,0
19.10.2017 15:00:00 19,5 10,8 1 1 15 8 N 0,0
19.10.2017 14:00:00 18,8 10,6 4 2 12 6 WSW -
19.10.2017 13:00:00 17,8 10,4 6 4 11 6 WSW 0,0
19.10.2017 12:00:00 16,1 12,1 5 3 12 6 WSW 0,0
19.10.2017 11:00:00 14,7 13,4 0 0 4 2 S 0,0
19.10.2017 10:00:00 12,9 12,3 0 0 0 0 N 0,0
19.10.2017 09:00:00 11,8 11,2 0 0 0 0 N 0,0
19.10.2017 08:00:00 11,9 11,3 0 0 0 0 N -
19.10.2017 07:00:00 12,1 11,5 0 0 0 0 N 1,5
19.10.2017 06:00:00 12,2 11,6 0 0 0 0 N 0,0
19.10.2017 05:00:00 12,4 11,8 0 0 0 0 N 0,0
19.10.2017 04:00:00 12,5 11,9 0 0 0 0 N 0,0
19.10.2017 03:00:00 12,5 11,9 0 0 0 0 N 0,0
19.10.2017 02:00:00 12,7 12,1 0 0 10 5 N -
19.10.2017 01:00:00 12,8 12,0 4 2 9 5 SW 2,1
19.10.2017 00:00:00 13,0 12,2 1 1 14 7 SW 1,3
18.10.2017 23:00:00 13,0 12,2 1 1 16 8 W 2,2
18.10.2017 22:00:00 13,3 12,4 2 1 9 5 WSW 1,1
18.10.2017 21:00:00 13,6 12,7 0 0 8 4 N 0,0
18.10.2017 20:00:00 13,6 12,5 0 0 0 0 N -
18.10.2017 19:00:00 14,2 13,1 0 0 4 2 N 0,1
18.10.2017 18:00:00 14,5 13,2 0 0 6 4 N 0,1
18.10.2017 17:00:00 14,3 13,0 5 3 11 6 NNE 0,2
18.10.2017 16:00:00 14,3 13,0 0 0 6 3 N 0,0
18.10.2017 15:00:00 13,9 12,6 3 2 29 16 N 7,3
18.10.2017 14:00:00 14,5 12,9 3 2 20 11 W -
18.10.2017 13:00:00 16,3 15,2 0 0 6 3 N 2,6
18.10.2017 12:00:00 16,0 14,9 1 1 5 3 WSW 0,2
18.10.2017 11:00:00 15,7 14,6 2 1 10 6 SW 0,0
18.10.2017 10:00:00 14,9 13,8 6 3 16 9 WSW 0,0
18.10.2017 09:00:00 14,5 13,2 0 0 7 4 N 0,1

tt = Température de l'air
td = dewpoint
ff = Vitesse du vent
fx = gusts
dd = Direction du vent
rr = Quantités de précipitations

stations d'obs. à proximité